Time;durP1;ratioP1;P1;durP2;ratioP2;P2;SDS_P1;SDS_P2;PMS_P1;PMS_P2;Temp;Humidity;BMP_temperature;BMP_pressure;BME280_temperature;BME280_humidity;BME280_pressure;Samples;Min_cycle;Max_cycle;Signal;HPM_P1;HPM_P2
2022/05/25 00:01:00;;;;;;;7.60;7.28;;;;;;;21.30;62.98;100797.84;4994791;28;20401;-62
2022/05/25 00:03:26;;;;;;;7.65;7.25;;;;;;;21.34;62.40;100787.38;4994584;28;20030;-62
2022/05/25 00:05:52;;;;;;;7.60;7.20;;;;;;;21.34;62.35;100792.00;4994785;28;20026;-60
2022/05/25 00:08:17;;;;;;;6.90;6.60;;;;;;;21.37;62.40;100791.63;4994567;28;20022;-62
2022/05/25 00:10:43;;;;;;;7.47;7.13;;;;;;;21.38;62.17;100790.56;4993266;28;20046;-62
2022/05/25 00:13:08;;;;;;;7.53;7.13;;;;;;;21.40;62.10;100785.75;4994613;28;20374;-62
2022/05/25 00:15:35;;;;;;;7.60;7.30;;;;;;;21.42;61.63;100790.00;4996395;28;20033;-62
2022/05/25 00:18:00;;;;;;;8.07;7.68;;;;;;;21.45;61.27;100786.03;4994520;28;20022;-62
2022/05/25 00:20:26;;;;;;;7.22;6.93;;;;;;;21.44;61.42;100770.66;4994361;28;20026;-62
2022/05/25 00:22:54;;;;;;;7.10;6.80;;;;;;;21.46;60.45;100784.97;4992989;28;20497;-62
2022/05/25 00:25:33;;;;;;;7.60;7.30;;;;;;;21.48;60.30;100777.44;4994194;28;20101;-62
2022/05/25 00:28:25;;;;;;;7.90;7.50;;;;;;;21.49;60.51;100779.13;4994212;28;20022;-62
2022/05/25 00:30:51;;;;;;;7.15;6.85;;;;;;;21.50;60.63;100764.41;4991293;28;20054;-62
2022/05/25 00:33:20;;;;;;;7.22;6.93;;;;;;;21.53;60.29;100766.78;5009124;28;20133;-62
2022/05/25 00:35:46;;;;;;;6.93;6.63;;;;;;;21.53;60.65;100761.31;4994155;28;20069;-62
2022/05/25 00:38:11;;;;;;;7.57;7.28;;;;;;;21.54;60.68;100760.25;4994034;28;20030;-63
2022/05/25 00:40:43;;;;;;;7.85;7.50;;;;;;;21.52;60.80;100773.28;5008969;28;20044;-62
2022/05/25 00:43:09;;;;;;;8.27;7.70;;;;;;;21.54;60.39;100772.03;4993980;28;20493;-62
2022/05/25 00:45:39;;;;;;;7.70;7.30;;;;;;;21.56;59.76;100763.63;4993807;28;20022;-62
2022/05/25 00:48:07;;;;;;;7.57;7.07;;;;;;;21.54;60.23;100772.03;4993842;28;20034;-62
2022/05/25 00:51:12;;;;;;;7.53;7.13;;;;;;;21.56;59.59;100763.63;4993837;28;20128;-62
2022/05/25 00:53:18;;;;;;;7.40;7.00;;;;;;;21.58;60.19;100756.94;4993707;28;20026;-62
2022/05/25 00:55:44;;;;;;;7.47;7.18;;;;;;;21.58;59.76;100767.88;4994058;28;20034;-62
2022/05/25 00:58:09;;;;;;;7.90;7.50;;;;;;;21.58;59.93;100762.41;4996765;28;20109;-60
2022/05/25 01:00:35;;;;;;;7.28;6.97;;;;;;;21.58;59.48;100756.09;4995137;28;20501;-62
2022/05/25 01:03:08;;;;;;;7.45;7.05;;;;;;;21.59;59.53;100760.50;4993716;28;20026;-62
2022/05/25 01:05:59;;;;;;;7.50;7.20;;;;;;;21.61;59.64;100758.44;4992473;28;20045;-61
2022/05/25 01:08:30;;;;;;;7.60;7.30;;;;;;;21.60;60.07;100757.56;4993269;28;20031;-62
2022/05/25 01:11:29;;;;;;;7.57;7.28;;;;;;;21.58;59.33;100750.59;4993471;28;20059;-62
2022/05/25 01:14:03;;;;;;;7.40;7.10;;;;;;;21.60;59.99;100754.00;4993444;28;20046;-62
2022/05/25 01:16:47;;;;;;;7.30;7.00;;;;;;;21.63;59.05;100753.59;4993292;28;20026;-62
2022/05/25 01:19:38;;;;;;;7.32;7.03;;;;;;;21.62;59.64;100754.66;4993593;28;20030;-62
2022/05/25 01:22:07;;;;;;;8.07;7.70;;;;;;;21.62;59.25;100749.16;4990574;28;20050;-62
2022/05/25 01:24:51;;;;;;;7.32;7.03;;;;;;;21.63;59.55;100748.13;4993076;28;20026;-62
2022/05/25 01:27:36;;;;;;;7.63;7.32;;;;;;;21.62;59.63;100750.03;4993237;28;20022;-62
2022/05/25 01:30:08;;;;;;;7.72;7.32;;;;;;;21.64;59.67;100749.81;4993298;28;20034;-61
2022/05/25 01:32:42;;;;;;;7.88;7.57;;;;;;;21.64;60.15;100736.13;4993097;28;20030;-62
2022/05/25 01:35:07;;;;;;;;;;;;;;;21.63;60.12;100742.66;4993582;28;20037;-62
2022/05/25 01:37:46;;;;;;;7.43;7.10;;;;;;;21.64;59.73;100738.88;4991778;28;19910;-62
2022/05/25 01:40:34;;;;;;;7.85;7.55;;;;;;;21.62;59.69;100741.81;4993156;28;20787;-62
2022/05/25 01:43:05;;;;;;;7.28;6.97;;;;;;;21.63;60.32;100737.19;4992814;28;20037;-62
2022/05/25 01:45:36;;;;;;;7.30;7.00;;;;;;;21.62;60.11;100733.59;4995104;28;20023;-61
2022/05/25 01:48:05;;;;;;;7.40;7.10;;;;;;;21.64;60.60;100727.94;4993155;28;20038;-62
2022/05/25 01:51:00;;;;;;;7.40;7.10;;;;;;;21.64;60.26;100736.13;4991581;28;20029;-62
2022/05/25 01:53:31;;;;;;;7.57;7.22;;;;;;;21.64;60.54;100733.41;4990944;28;20057;-62
2022/05/25 01:56:02;;;;;;;7.40;7.10;;;;;;;21.63;60.00;100732.56;4993070;28;20030;-61
2022/05/25 01:58:30;;;;;;;7.50;7.10;;;;;;;21.66;60.67;100730.47;4992865;28;20026;-62
2022/05/25 02:00:58;;;;;;;8.48;7.97;;;;;;;21.66;60.26;100731.31;4992991;28;20049;-62
2022/05/25 02:06:42;;;;;;;7.20;6.90;;;;;;;21.67;60.72;100733.03;4992982;28;20040;-62
2022/05/25 02:09:41;;;;;;;7.40;7.10;;;;;;;21.65;60.51;100740.56;4992870;28;20027;-62
2022/05/25 02:12:32;;;;;;;7.30;7.00;;;;;;;21.66;60.78;100742.25;4992873;28;20410;-62
2022/05/25 02:15:24;;;;;;;7.45;7.15;;;;;;;21.66;60.86;100736.78;4992802;28;20495;-62
2022/05/25 02:17:54;;;;;;;7.63;7.32;;;;;;;21.66;60.68;100731.31;4993212;28;20435;-63
2022/05/25 02:20:32;;;;;;;7.88;7.57;;;;;;;21.66;60.73;100734.06;4992834;28;20375;-62
2022/05/25 02:23:05;;;;;;;8.00;7.70;;;;;;;21.66;61.44;100734.06;4992633;28;20050;-61
2022/05/25 02:25:39;;;;;;;7.70;7.40;;;;;;;21.67;60.54;100735.78;4992730;28;20034;-62
2022/05/25 02:28:16;;;;;;;7.35;7.05;;;;;;;21.68;61.01;100740.22;4992725;28;20022;-62
2022/05/25 02:30:46;;;;;;;7.30;7.00;;;;;;;21.67;60.70;100738.50;4992773;28;20380;-61
2022/05/25 02:33:17;;;;;;;7.30;7.00;;;;;;;21.69;61.37;100741.91;4992672;28;20030;-62
2022/05/25 02:35:46;;;;;;;7.30;7.00;;;;;;;21.67;60.98;100749.47;4996008;28;20030;-62
2022/05/25 02:38:12;;;;;;;8.02;7.72;;;;;;;21.66;60.75;100747.72;4992590;28;20030;-62
2022/05/25 02:40:39;;;;;;;7.18;6.88;;;;;;;21.69;61.26;100752.00;4992518;28;20118;-62
2022/05/25 02:43:06;;;;;;;7.20;6.90;;;;;;;21.70;60.93;100751.78;4991422;28;20513;-62
2022/05/25 02:45:31;;;;;;;7.10;6.80;;;;;;;21.69;61.32;100752.84;4991172;28;20026;-63
2022/05/25 02:47:57;;;;;;;7.65;7.28;;;;;;;21.67;60.67;100744.00;4992598;28;20018;-62
2022/05/25 02:50:22;;;;;;;7.68;7.38;;;;;;;21.70;60.45;100740.00;4992372;28;20030;-62
2022/05/25 02:52:47;;;;;;;7.40;7.10;;;;;;;21.68;60.55;100740.22;4992575;28;20027;-62
2022/05/25 02:55:13;;;;;;;7.40;7.10;;;;;;;21.68;61.49;100751.16;4995028;28;20030;-62
2022/05/25 02:57:39;;;;;;;7.50;7.15;;;;;;;21.67;61.69;100749.47;4996172;28;20041;-61
2022/05/25 03:00:07;;;;;;;7.32;7.03;;;;;;;21.67;61.56;100746.72;4996014;28;20022;-59
2022/05/25 03:02:33;;;;;;;7.40;7.10;;;;;;;21.68;61.31;100698.31;4995767;28;20037;-62
2022/05/25 03:04:58;;;;;;;7.10;6.80;;;;;;;21.71;61.75;100701.50;4996122;28;20382;-62
2022/05/25 03:07:23;;;;;;;7.30;7.00;;;;;;;21.72;61.91;100711.41;4995600;28;20497;-62
2022/05/25 03:09:50;;;;;;;7.38;7.07;;;;;;;21.73;62.23;100765.06;4995728;28;20135;-62
2022/05/25 03:12:15;;;;;;;7.30;7.00;;;;;;;21.71;62.56;100750.75;4995638;28;20101;-62
2022/05/25 03:14:41;;;;;;;7.55;7.10;;;;;;;21.71;62.62;100748.00;4995631;28;20110;-62
2022/05/25 03:17:10;;;;;;;7.40;7.10;;;;;;;21.73;62.53;100742.34;4995665;28;20033;-62
2022/05/25 03:19:36;;;;;;;7.43;7.13;;;;;;;21.73;62.15;100748.66;4995444;28;20053;-61
2022/05/25 03:22:02;;;;;;;8.40;8.05;;;;;;;21.72;62.33;100752.44;4995422;28;20513;-62
2022/05/25 03:24:27;;;;;;;7.10;6.80;;;;;;;21.72;62.37;100748.88;4995662;28;20113;-61
2022/05/25 03:26:53;;;;;;;7.50;7.20;;;;;;;21.71;62.06;100748.00;4997880;28;20485;-62
2022/05/25 03:29:19;;;;;;;7.35;7.05;;;;;;;21.71;61.90;100742.53;4995410;28;20037;-61
2022/05/25 03:31:44;;;;;;;7.25;6.95;;;;;;;21.71;62.52;100737.06;4995372;28;20278;-61
2022/05/25 03:34:09;;;;;;;7.10;6.80;;;;;;;21.72;62.53;100743.38;4995386;28;20029;-61
2022/05/25 03:36:35;;;;;;;7.35;7.03;;;;;;;21.73;62.19;100739.59;4995136;28;20022;-61
2022/05/25 03:39:00;;;;;;;7.50;7.20;;;;;;;21.72;61.86;100741.50;4995491;28;20022;-61
2022/05/25 03:41:25;;;;;;;6.90;6.60;;;;;;;21.74;62.09;100730.34;4995300;28;20026;-60
2022/05/25 03:43:51;;;;;;;7.60;7.30;;;;;;;21.72;62.82;100725.09;4995249;28;20026;-61
2022/05/25 03:46:16;;;;;;;7.30;7.00;;;;;;;21.73;62.93;100737.72;4995063;28;20030;-61
2022/05/25 03:48:41;;;;;;;7.07;6.78;;;;;;;21.74;62.64;100736.69;5009914;28;20092;-61
2022/05/25 03:51:07;;;;;;;7.53;7.13;;;;;;;21.73;62.95;100745.09;4994924;28;20030;-61
2022/05/25 03:53:32;;;;;;;7.20;6.90;;;;;;;21.71;62.99;100756.22;4995025;28;20034;-61
2022/05/25 03:55:57;;;;;;;7.22;6.93;;;;;;;21.75;63.62;100751.19;4994929;28;20104;-61
2022/05/25 03:58:23;;;;;;;7.43;7.13;;;;;;;21.73;63.05;100748.66;4994685;28;20022;-61
2022/05/25 04:00:48;;;;;;;7.80;7.50;;;;;;;21.74;63.23;100744.03;4994908;28;20041;-62
2022/05/25 04:03:15;;;;;;;0.57;0.40;;;;;;;22.22;61.95;100745.13;4994768;28;20030;-61
2022/05/25 04:05:42;;;;;;;0.30;0.30;;;;;;;22.55;61.31;100747.25;4994424;28;20430;-62
2022/05/25 04:08:07;;;;;;;0.35;0.35;;;;;;;22.78;60.65;100748.63;4994813;28;20022;-61
2022/05/25 04:10:33;;;;;;;0.47;0.47;;;;;;;22.98;61.57;100748.75;4994490;28;20052;-61
2022/05/25 04:12:58;;;;;;;0.47;0.30;;;;;;;23.13;61.30;100754.09;4994659;28;20027;-61
2022/05/25 04:15:27;;;;;;;0.30;0.30;;;;;;;23.28;61.14;100737.47;4997678;28;20026;-62
2022/05/25 04:17:54;;;;;;;0.45;0.40;;;;;;;23.42;62.24;100744.69;4994503;28;20492;-61
2022/05/25 04:20:20;;;;;;;0.10;0.10;;;;;;;23.51;62.80;100753.56;4994400;28;20034;-61
2022/05/25 04:22:46;;;;;;;0.30;0.30;;;;;;;23.66;63.15;100749.63;4994268;28;20055;-61
2022/05/25 04:25:14;;;;;;;0.75;0.30;;;;;;;23.76;63.43;100749.22;4994301;28;20036;-61
2022/05/25 04:27:42;;;;;;;0.55;0.28;;;;;;;23.87;63.04;100754.09;4994211;28;20033;-61
2022/05/25 04:30:10;;;;;;;0.15;0.15;;;;;;;23.97;64.11;100754.50;4994220;28;20064;-61
2022/05/25 04:32:35;;;;;;;0.17;0.17;;;;;;;24.06;63.87;100752.41;4994230;28;20065;-61
2022/05/25 04:35:00;;;;;;;0.10;0.10;;;;;;;24.14;64.25;100757.69;4994193;28;20058;-61
2022/05/25 04:40:12;;;;;;;0.10;0.10;;;;;;;24.30;63.70;100764.69;4994396;28;20116;-62
2022/05/25 04:42:37;;;;;;;0.30;0.30;;;;;;;23.93;64.45;100763.38;4993947;28;20036;-61
2022/05/25 04:45:03;;;;;;;0.43;0.30;;;;;;;23.44;63.98;100763.69;4994163;28;20113;-61
2022/05/25 04:47:30;;;;;;;0.20;0.20;;;;;;;23.19;61.46;100772.47;4993694;28;20057;-61
2022/05/25 04:49:56;;;;;;;0.50;0.32;;;;;;;23.03;60.24;100773.69;4993849;28;20038;-61
2022/05/25 04:52:21;;;;;;;0.52;0.20;;;;;;;22.83;58.81;100761.75;4993695;28;20030;-61
2022/05/25 04:54:46;;;;;;;0.77;0.20;;;;;;;22.74;58.28;100766.53;4994146;28;20470;-61
2022/05/25 04:57:20;;;;;;;0.30;0.30;;;;;;;22.63;56.90;100771.72;4993744;28;20072;-61
2022/05/25 04:59:49;;;;;;;;;;;;;;;22.52;56.72;100775.88;4994398;28;20483;-61
2022/05/25 05:02:15;;;;;;;0.25;0.13;;;;;;;22.43;55.78;100756.00;4998334;28;20260;-61
2022/05/25 05:04:41;;;;;;;0.35;0.35;;;;;;;22.40;55.00;100756.41;4993561;28;20034;-61
2022/05/25 05:07:06;;;;;;;0.10;0.10;;;;;;;22.40;55.33;100761.88;4993976;28;20028;-61
2022/05/25 05:09:37;;;;;;;0.20;0.20;;;;;;;22.28;53.09;100758.00;4993362;28;20022;-61
2022/05/25 05:12:03;;;;;;;0.68;0.20;;;;;;;22.23;53.83;100760.50;4993550;28;20069;-61
2022/05/25 05:14:28;;;;;;;0.38;0.30;;;;;;;22.20;54.05;100758.16;4993460;28;20030;-60
2022/05/25 05:16:56;;;;;;;0.20;0.20;;;;;;;22.19;55.07;100753.72;4992889;28;20524;-61
2022/05/25 05:19:21;;;;;;;0.45;0.40;;;;;;;22.17;54.62;100747.59;4993397;28;20023;-61
2022/05/25 05:21:46;;;;;;;1.02;0.17;;;;;;;22.18;54.11;100757.53;4993252;28;20054;-61
2022/05/25 05:24:12;;;;;;;0.20;0.20;;;;;;;22.16;54.90;100751.38;4993326;28;20076;-61
2022/05/25 05:26:37;;;;;;;0.40;0.20;;;;;;;22.27;54.13;100759.06;4993295;28;20034;-62
2022/05/25 05:29:02;;;;;;;0.30;0.30;;;;;;;22.23;53.51;100763.25;4993313;28;20022;-61
2022/05/25 05:31:27;;;;;;;0.20;0.20;;;;;;;22.18;54.51;100763.00;4993165;28;20121;-61
2022/05/25 05:33:54;;;;;;;0.30;0.25;;;;;;;22.19;53.87;100764.69;4993271;28;20026;-61
2022/05/25 05:36:34;;;;;;;0.30;0.30;;;;;;;22.17;54.30;100766.75;4993177;28;20022;-62
2022/05/25 05:39:05;;;;;;;0.35;0.28;;;;;;;22.21;55.00;100779.03;4993220;28;20484;-61
2022/05/25 05:41:36;;;;;;;0.30;0.20;;;;;;;22.29;54.81;100787.06;4993104;28;20481;-62
2022/05/25 05:44:04;;;;;;;0.10;0.10;;;;;;;22.22;55.67;100791.66;4993158;28;20026;-62
2022/05/25 05:46:29;;;;;;;0.52;0.30;;;;;;;22.19;56.19;100797.53;4992978;28;20022;-61
2022/05/25 05:48:55;;;;;;;0.30;0.20;;;;;;;22.26;55.54;100792.09;4993107;28;20171;-61
2022/05/25 05:51:20;;;;;;;0.30;0.30;;;;;;;22.26;55.24;100784.75;4993576;28;20143;-60
2022/05/25 05:53:46;;;;;;;0.10;0.10;;;;;;;22.23;55.11;100785.16;4993600;28;20059;-61
2022/05/25 05:56:12;;;;;;;0.10;0.10;;;;;;;22.26;54.81;100783.91;4993115;28;20030;-61
2022/05/25 05:58:38;;;;;;;0.20;0.20;;;;;;;22.20;54.74;100758.16;4992992;28;20030;-61
2022/05/25 06:01:03;;;;;;;0.25;0.20;;;;;;;22.20;55.03;100783.66;4993025;28;20027;-61
2022/05/25 06:03:29;;;;;;;0.20;0.20;;;;;;;22.15;54.84;100777.06;4992875;28;20277;-61
2022/05/25 06:05:55;;;;;;;0.10;0.10;;;;;;;22.14;55.28;100787.16;4993014;28;20386;-61
2022/05/25 06:08:23;;;;;;;0.20;0.20;;;;;;;22.18;55.42;100784.91;4991358;28;20022;-61
2022/05/25 06:10:49;;;;;;;1.15;0.20;;;;;;;22.17;55.29;100783.19;4992972;28;20072;-60
2022/05/25 06:13:14;;;;;;;0.22;0.22;;;;;;;22.14;54.34;100789.06;4992976;28;20105;-61
2022/05/25 06:21:16;;;;;;;0.15;0.10;;;;;;;22.17;56.48;100788.66;4992644;28;20553;-60
2022/05/25 06:23:41;;;;;;;0.10;0.10;;;;;;;22.28;55.55;100790.03;4992763;28;20105;-61
2022/05/25 06:26:07;;;;;;;0.15;0.13;;;;;;;22.19;54.81;100797.53;4992735;28;20117;-61
2022/05/25 06:28:32;;;;;;;0.22;0.10;;;;;;;22.24;55.81;100784.09;4994336;28;20065;-61
2022/05/25 06:30:58;;;;;;;0.30;0.10;;;;;;;22.25;54.82;100796.75;4996512;28;20535;-61
2022/05/25 06:33:24;;;;;;;0.20;0.20;;;;;;;22.24;54.66;100789.56;4996317;28;20030;-61
2022/05/25 06:35:49;;;;;;;0.10;0.10;;;;;;;22.31;56.58;100784.97;4996356;28;20044;-61
2022/05/25 06:38:16;;;;;;;0.10;0.10;;;;;;;22.22;54.74;100783.44;4996303;28;20033;-61
2022/05/25 06:40:41;;;;;;;0.90;0.10;;;;;;;22.22;55.60;100775.25;4996274;28;20061;-61
2022/05/25 06:43:06;;;;;;;0.20;0.20;;;;;;;22.13;55.42;100787.38;4996370;28;20397;-61
2022/05/25 06:45:31;;;;;;;0.57;0.20;;;;;;;22.26;55.58;100792.09;4996173;28;20041;-61
2022/05/25 06:47:57;;;;;;;0.30;0.15;;;;;;;22.16;55.10;100797.91;5000809;28;20468;-59
2022/05/25 06:50:22;;;;;;;0.35;0.10;;;;;;;22.27;55.74;100800.13;4996021;28;20030;-61
2022/05/25 06:52:47;;;;;;;0.22;0.10;;;;;;;22.17;54.94;100796.88;4996460;28;20036;-59
2022/05/25 06:55:13;;;;;;;1.48;0.10;;;;;;;22.24;55.50;100795.06;4996012;28;20030;-61
2022/05/25 06:57:40;;;;;;;0.20;0.10;;;;;;;22.18;55.44;100801.34;4996061;28;20030;-61
2022/05/25 07:00:06;;;;;;;0.20;0.20;;;;;;;22.18;56.41;100801.34;4996025;28;20488;-61
2022/05/25 07:02:31;;;;;;;0.20;0.20;;;;;;;22.33;54.89;100804.78;4995988;28;20026;-60
2022/05/25 07:04:56;;;;;;;0.10;0.10;;;;;;;22.20;54.86;100810.19;4995814;28;20486;-60
2022/05/25 07:07:22;;;;;;;0.52;0.10;;;;;;;22.18;55.27;100802.19;4995683;28;20028;-61
2022/05/25 07:09:47;;;;;;;0.20;0.20;;;;;;;22.21;54.68;100810.00;4995702;28;20031;-61
2022/05/25 07:12:13;;;;;;;0.65;0.20;;;;;;;22.30;55.42;100807.94;4995676;28;20026;-61
2022/05/25 07:14:39;;;;;;;0.30;0.30;;;;;;;22.26;55.59;100814.88;4995490;28;20379;-61
2022/05/25 07:17:05;;;;;;;0.30;0.30;;;;;;;22.17;55.63;100807.81;4995676;28;20018;-59
2022/05/25 07:19:31;;;;;;;0.47;0.40;;;;;;;22.25;55.96;100813.19;4995412;28;20039;-61
2022/05/25 07:21:56;;;;;;;0.88;0.50;;;;;;;22.27;55.20;100800.13;4995595;28;20046;-60
2022/05/25 07:24:21;;;;;;;2.10;0.60;;;;;;;22.31;55.62;100809.63;4995292;28;20482;-61
2022/05/25 07:26:47;;;;;;;0.60;0.60;;;;;;;22.28;55.98;100812.78;4995739;28;20030;-61
2022/05/25 07:29:14;;;;;;;0.52;0.38;;;;;;;22.25;54.92;100812.31;4995325;28;20026;-61
2022/05/25 07:31:51;;;;;;;0.43;0.40;;;;;;;22.31;55.44;100822.47;4995294;28;20037;-61
2022/05/25 07:34:21;;;;;;;0.90;0.60;;;;;;;22.24;56.21;100816.97;4995297;28;20426;-62
2022/05/25 07:36:54;;;;;;;0.95;0.50;;;;;;;22.26;56.01;100809.38;4995379;28;20034;-62
2022/05/25 07:39:23;;;;;;;0.50;0.40;;;;;;;22.29;56.37;100813.63;4995003;28;20049;-61
2022/05/25 07:41:52;;;;;;;0.80;0.40;;;;;;;22.23;56.54;100814.41;4995744;28;20023;-61
2022/05/25 07:44:25;;;;;;;0.80;0.30;;;;;;;22.33;54.99;100813.00;4993867;28;20030;-61
2022/05/25 07:46:51;;;;;;;0.30;0.30;;;;;;;22.26;56.59;100827.72;4995133;28;20022;-61
2022/05/25 07:49:16;;;;;;;0.45;0.40;;;;;;;22.29;55.80;100819.94;4994984;28;20025;-61
2022/05/25 07:51:42;;;;;;;0.47;0.47;;;;;;;22.29;54.90;100811.72;4994972;28;20113;-60
2022/05/25 07:54:07;;;;;;;0.65;0.30;;;;;;;22.32;54.99;100800.38;4995065;28;20062;-61
2022/05/25 07:56:36;;;;;;;0.65;0.30;;;;;;;22.27;54.39;100805.59;4994770;28;20037;-61
2022/05/25 07:59:04;;;;;;;0.45;0.40;;;;;;;22.26;55.76;100809.38;4994841;28;20045;-61
2022/05/25 08:07:05;;;;;;;0.50;0.30;;;;;;;22.33;55.64;100796.59;4995011;28;20057;-61
2022/05/25 08:09:31;;;;;;;0.57;0.30;;;;;;;22.27;56.10;100800.13;4994781;28;20068;-61
2022/05/25 08:11:57;;;;;;;0.60;0.25;;;;;;;22.30;55.31;100796.97;4994776;28;20533;-59
2022/05/25 08:14:28;;;;;;;0.50;0.50;;;;;;;22.31;55.36;100795.09;4994494;28;20066;-61
2022/05/25 08:16:54;;;;;;;0.47;0.25;;;;;;;22.30;56.03;100788.78;4994818;28;20374;-61
2022/05/25 08:19:19;;;;;;;1.55;0.30;;;;;;;22.23;55.91;100796.09;4994445;28;20023;-60
2022/05/25 08:21:47;;;;;;;0.30;0.30;;;;;;;22.29;56.08;100798.03;4994465;28;20054;-61
2022/05/25 08:24:13;;;;;;;0.30;0.30;;;;;;;22.28;56.81;100800.97;4995835;28;20031;-61
2022/05/25 08:26:39;;;;;;;0.43;0.30;;;;;;;22.32;54.66;100797.63;4995896;28;20033;-61
2022/05/25 08:29:04;;;;;;;0.35;0.35;;;;;;;22.31;56.33;100801.41;4994423;28;20022;-61
2022/05/25 08:31:29;;;;;;;0.38;0.32;;;;;;;22.28;56.57;100801.81;4994083;28;20034;-61
2022/05/25 08:33:55;;;;;;;0.70;0.40;;;;;;;22.29;55.86;100802.66;4994261;28;20030;-61
2022/05/25 08:36:20;;;;;;;0.20;0.10;;;;;;;22.25;56.72;100802.22;4994043;28;20049;-61
2022/05/25 08:38:45;;;;;;;0.20;0.20;;;;;;;22.35;55.88;100796.41;4994259;28;20025;-61
2022/05/25 08:41:10;;;;;;;0.30;0.30;;;;;;;22.32;56.45;100796.78;4994047;28;20049;-61
2022/05/25 08:43:44;;;;;;;1.27;0.28;;;;;;;22.35;55.81;100790.94;4994165;28;20022;-60
2022/05/25 08:46:14;;;;;;;1.45;0.20;;;;;;;22.29;55.98;100786.22;4994171;28;20030;-61
2022/05/25 08:48:41;;;;;;;0.30;0.30;;;;;;;22.34;57.74;100795.56;4993756;28;20065;-61
2022/05/25 08:51:11;;;;;;;0.73;0.30;;;;;;;22.36;56.97;100781.66;4993341;28;20114;-62
2022/05/25 08:53:37;;;;;;;0.60;0.30;;;;;;;22.32;56.17;100808.59;4992068;28;20076;-61
2022/05/25 08:56:17;;;;;;;0.47;0.25;;;;;;;22.36;55.72;100803.59;5002141;28;20026;-61
2022/05/25 08:58:47;;;;;;;0.65;0.30;;;;;;;22.31;56.52;100795.94;5013365;28;20022;-61
2022/05/25 09:01:22;;;;;;;0.63;0.20;;;;;;;22.29;55.54;100800.78;5013348;28;20068;-61
2022/05/25 09:04:03;;;;;;;0.85;0.40;;;;;;;22.37;55.57;100806.13;5013281;28;20025;-61
2022/05/25 09:06:50;;;;;;;0.28;0.20;;;;;;;22.32;55.62;100808.59;5011882;28;20026;-61
2022/05/25 09:09:36;;;;;;;0.30;0.30;;;;;;;22.33;56.20;100810.28;5013113;28;20454;-60
2022/05/25 09:12:07;;;;;;;0.70;0.30;;;;;;;22.33;55.77;100804.78;5013169;28;20389;-61
2022/05/25 09:14:37;;;;;;;0.30;0.25;;;;;;;22.39;56.50;100809.50;5013075;28;20025;-60
2022/05/25 09:17:09;;;;;;;0.28;0.28;;;;;;;22.28;55.72;100807.28;5013155;28;20037;-61
2022/05/25 09:19:39;;;;;;;0.28;0.28;;;;;;;22.30;55.86;100810.69;5013257;28;20088;-60
2022/05/25 09:22:08;;;;;;;0.20;0.20;;;;;;;22.30;55.17;100810.69;5013992;28;20081;-60
2022/05/25 09:24:35;;;;;;;0.88;0.30;;;;;;;22.38;54.93;100806.97;5012846;28;20061;-60
2022/05/25 09:27:02;;;;;;;0.20;0.20;;;;;;;22.33;56.07;100804.78;5012961;28;20113;-60
2022/05/25 09:29:28;;;;;;;0.85;0.20;;;;;;;22.35;55.66;100802.75;5012816;28;20029;-60
2022/05/25 09:32:19;;;;;;;0.15;0.15;;;;;;;22.27;55.79;100796.53;5012943;28;20461;-60
2022/05/25 09:35:17;;;;;;;0.30;0.30;;;;;;;22.40;55.71;100793.91;5012798;28;20026;-61
2022/05/25 09:37:59;;;;;;;0.22;0.20;;;;;;;22.38;56.16;100785.06;5012783;28;20056;-61
2022/05/25 09:40:32;;;;;;;0.15;0.15;;;;;;;22.29;55.27;100780.75;5012669;28;20030;-61
2022/05/25 09:42:57;;;;;;;0.47;0.40;;;;;;;22.30;56.08;100782.44;5013015;28;20022;-61
2022/05/25 09:45:39;;;;;;;0.45;0.30;;;;;;;22.35;55.40;100791.78;5012629;28;20068;-61
2022/05/25 09:48:18;;;;;;;0.30;0.20;;;;;;;22.28;56.13;100796.34;5013067;28;20021;-61
2022/05/25 09:50:49;;;;;;;0.32;0.25;;;;;;;22.31;55.80;100795.94;5012959;28;20084;-61
2022/05/25 09:53:17;;;;;;;0.85;0.45;;;;;;;22.35;56.91;100783.56;5012662;28;20033;-61
2022/05/25 09:55:51;;;;;;;1.23;0.20;;;;;;;22.27;55.96;100789.16;5012944;28;20466;-61
2022/05/25 09:58:32;;;;;;;0.22;0.22;;;;;;;22.30;55.73;100783.28;5012821;28;20029;-61
2022/05/25 10:01:00;;;;;;;0.20;0.13;;;;;;;22.27;55.73;100772.75;5015481;28;20519;-61
2022/05/25 10:03:39;;;;;;;0.20;0.20;;;;;;;22.35;55.37;100778.09;5014787;28;20022;-61
2022/05/25 10:06:34;;;;;;;0.30;0.30;;;;;;;22.38;55.65;100779.56;5016663;28;20064;-60
2022/05/25 10:09:15;;;;;;;0.47;0.20;;;;;;;22.40;55.59;100778.31;5016480;28;20026;-61
2022/05/25 10:11:45;;;;;;;0.40;0.20;;;;;;;22.39;56.16;100782.13;5016813;28;20056;-61
2022/05/25 10:14:39;;;;;;;1.05;0.20;;;;;;;22.36;56.25;100782.50;5016503;28;20101;-61
2022/05/25 10:17:11;;;;;;;0.13;0.13;;;;;;;22.29;55.59;100788.97;5016519;28;20022;-60
2022/05/25 10:19:51;;;;;;;0.65;0.15;;;;;;;22.30;55.80;100780.56;5016213;28;20022;-61
2022/05/25 10:22:41;;;;;;;0.10;0.10;;;;;;;22.27;55.98;100778.22;5016046;28;20050;-61
2022/05/25 10:25:23;;;;;;;0.22;0.20;;;;;;;22.34;55.48;100779.13;5016268;28;20030;-61
2022/05/25 10:27:48;;;;;;;0.45;0.20;;;;;;;22.33;55.45;100766.44;5016223;28;20124;-61
2022/05/25 10:39:24;;;;;;;0.52;0.20;;;;;;;22.27;56.45;100789.16;5016220;28;20060;-61
2022/05/25 10:42:00;;;;;;;0.90;0.20;;;;;;;22.35;56.50;100780.81;5019459;28;20076;-61
2022/05/25 10:44:32;;;;;;;0.10;0.10;;;;;;;22.32;56.80;100781.19;5015779;28;20033;-60
2022/05/25 10:46:57;;;;;;;0.20;0.13;;;;;;;22.35;56.43;100778.09;5015845;28;20030;-61
2022/05/25 10:49:35;;;;;;;0.10;0.10;;;;;;;22.36;54.79;100782.50;5015570;28;20030;-61
2022/05/25 10:52:32;;;;;;;0.10;0.10;;;;;;;22.34;56.50;100778.25;5015813;28;20476;-61
2022/05/25 10:54:58;;;;;;;0.00;0.00;;;;;;;22.32;55.40;100772.13;5014956;28;20088;-60
2022/05/25 10:57:38;;;;;;;0.60;0.17;;;;;;;22.28;55.89;100768.94;5015658;28;20057;-61
2022/05/25 11:00:10;;;;;;;1.58;0.28;;;;;;;22.35;54.97;100778.09;5015885;28;20136;-61
2022/05/25 11:03:00;;;;;;;0.47;0.17;;;;;;;22.29;57.22;100778.88;5015436;28;20409;-61
2022/05/25 11:05:44;;;;;;;0.20;0.20;;;;;;;22.34;56.55;100767.31;5015319;28;20528;-60
2022/05/25 11:08:18;;;;;;;0.17;0.17;;;;;;;22.25;55.47;100774.84;5015436;28;20500;-61
2022/05/25 11:10:55;;;;;;;0.50;0.30;;;;;;;22.39;55.93;100782.13;5015475;28;20042;-60
2022/05/25 11:13:38;;;;;;;0.30;0.20;;;;;;;22.36;55.23;100782.50;5015258;28;20500;-61
2022/05/25 11:16:26;;;;;;;0.15;0.10;;;;;;;22.36;55.78;100787.16;5014289;28;20408;-61
2022/05/25 11:19:25;;;;;;;0.20;0.20;;;;;;;22.30;55.76;100779.72;5015251;28;20022;-61
2022/05/25 11:21:53;;;;;;;0.15;0.13;;;;;;;22.38;56.14;100783.16;5014901;28;20046;-61
2022/05/25 11:24:39;;;;;;;0.70;0.45;;;;;;;22.34;56.19;100779.13;5014984;28;20033;-61
2022/05/25 11:27:29;;;;;;;0.35;0.20;;;;;;;22.45;55.44;100788.69;5015219;28;20026;-61
2022/05/25 11:30:26;;;;;;;0.30;0.30;;;;;;;22.36;55.90;100788.00;5015736;28;20026;-60
2022/05/25 11:33:17;;;;;;;0.10;0.10;;;;;;;22.34;55.96;100790.09;5015034;28;20028;-60
2022/05/25 11:36:06;;;;;;;0.10;0.10;;;;;;;22.48;55.98;100791.84;5014905;28;20489;-61
2022/05/25 11:39:12;;;;;;;0.20;0.20;;;;;;;22.32;56.32;100789.41;5014780;28;20045;-60
2022/05/25 11:42:09;;;;;;;1.55;0.47;;;;;;;22.31;55.60;100795.94;5014715;28;20069;-61
2022/05/25 11:44:49;;;;;;;0.30;0.30;;;;;;;22.40;55.17;100783.81;4953684;29;20096;-60
2022/05/25 11:47:35;;;;;;;1.02;0.20;;;;;;;22.38;55.01;100783.16;4953940;29;20039;-61
2022/05/25 11:50:21;;;;;;;0.10;0.10;;;;;;;22.35;54.64;100783.56;4878091;29;20378;-60
2022/05/25 11:53:02;;;;;;;0.20;0.20;;;;;;;22.40;56.99;100785.69;4878223;29;20048;-60
2022/05/25 11:55:35;;;;;;;0.75;0.40;;;;;;;22.25;56.19;100777.56;4877884;29;20095;-60
2022/05/25 11:58:22;;;;;;;1.57;0.20;;;;;;;22.39;55.27;100776.63;4878351;29;20389;-60
2022/05/25 12:01:06;;;;;;;0.30;0.20;;;;;;;22.31;57.26;100771.28;4878004;29;20037;-60
2022/05/25 12:03:56;;;;;;;0.20;0.20;;;;;;;22.37;55.95;100767.78;4877927;29;20045;-61
2022/05/25 12:06:53;;;;;;;0.93;0.28;;;;;;;22.47;54.36;100778.34;4877880;29;20044;-60
2022/05/25 12:09:37;;;;;;;0.13;0.10;;;;;;;22.45;55.63;100785.94;4877780;29;20348;-60
2022/05/25 12:12:13;;;;;;;0.20;0.10;;;;;;;22.40;55.33;100772.84;4878038;29;20079;-60